Wednesday, February 21, 2018, 8:15 PM EST
Back to Local

KEWR, Newark International Airport

Location: Elizabeth, NJ, United States Lat: 40.683
Local Time: 8:15 PM EST ( 1:15 GMT) Lon: -74.167
Time Zone: US/Eastern Elev: 16 ft

Show me the last for .
Show Decoded

2018-02-21 19:51 METAR KEWR 220051Z 33018G27KT 10SM -RA SCT035 BKN045 BKN090 19/13 A3030 RMK AO2
                 PK WND 34027/0044 WSHFT 0024 RAB43 SLP260 P0000 T01940128 $ =
2018-02-21 19:44 METAR KEWR 220044Z 34022G27KT 10SM -RA FEW032 BKN045 BKN100 21/13 A3029 RMK AO2
                 PK WND 34027/0044 WSHFT 0024 RAB43 PRESRR P0000 T02110133 $ =
2018-02-21 18:51 METAR KEWR 212351Z 22015G22KT 10SM FEW050 SCT100 23/16 A3024 RMK AO2 SLP239
                 T02330156 10267 20228 53016 $ =
2018-02-21 17:51 METAR KEWR 212251Z 22009KT 10SM FEW050 FEW100 23/16 A3022 RMK AO2 SLP232
                 T02330156 $ =
2018-02-21 16:51 METAR KEWR 212151Z 23012KT 10SM FEW045 FEW100 26/15 A3020 RMK AO2 SLP227
                 T02560150 $ =
2018-02-21 15:51 METAR KEWR 212051Z 23012KT 10SM FEW045 FEW250 27/15 A3019 RMK AO2 SLP223
                 T02670150 55008 $ =
2018-02-21 14:51 METAR KEWR 211951Z 22014KT 10SM FEW045 FEW250 26/15 A3019 RMK AO2 PK WND
                 22026/1852 SLP223 T02610150 $ =
2018-02-21 13:51 METAR KEWR 211851Z 22016G24KT 10SM FEW045 SCT085 SCT250 26/15 A3020 RMK AO2
                 SLP224 T02560150 $ =
2018-02-21 12:51 METAR KEWR 211751Z 21016G22KT 10SM FEW035 SCT080 SCT250 24/15 A3022 RMK AO2 PK
                 WND 24027/1737 SLP231 T02440150 10250 20161 57025 $ =
2018-02-21 11:51 METAR KEWR 211651Z 22012KT 10SM FEW030 SCT250 23/15 A3024 RMK AO2 SLP238
                 T02330150 $ =
2018-02-21 10:51 METAR KEWR 211551Z 23015KT 10SM FEW020 BKN250 21/15 A3027 RMK AO2 SLP250
                 T02110150 $ =
2018-02-21 10:43 METAR KEWR 211543Z 23017G20KT 10SM SCT019 BKN250 21/15 A3028 RMK AO2 T02110150 $
                 =
2018-02-21 10:05 METAR KEWR 211505Z 24016KT 10SM OVC017 19/15 A3029 RMK AO2 CIG 015V019 T01890150
                 $ =
2018-02-21 09:51 METAR KEWR 211451Z 24020G24KT 10SM OVC017 19/15 A3029 RMK AO2 SLP257 CIG 015V020
                 T01890150 55001 $ =
2018-02-21 09:35 METAR KEWR 211435Z 23016G22KT 10SM BKN015 OVC020 18/15 A3029 RMK AO2 T01830150 $
                 =
2018-02-21 08:51 METAR KEWR 211351Z 21014KT 8SM BKN012 OVC018 17/15 A3029 RMK AO2 SLP256
                 T01720150 $ =
2018-02-21 07:51 METAR KEWR 211251Z 21008KT 9SM OVC014 17/15 A3029 RMK AO2 SLP257 T01670150 $ =
2018-02-21 06:51 METAR KEWR 211151Z 22012G18KT 9SM OVC012 16/14 A3029 RMK AO2 SLP257 T01610144
                 10167 20133 55001 $ =
2018-02-21 05:51 METAR KEWR 211051Z 22013G17KT 7SM OVC010 16/15 A3029 RMK AO2 SLP256 T01610150 $
                 =
2018-02-21 05:49 METAR KEWR 211049Z 22010KT 7SM OVC010 16/15 A3029 RMK AO2 $ =
2018-02-21 04:51 METAR KEWR 210951Z 23010KT 7SM OVC008 16/15 A3029 RMK AO2 SLP257 T01610150 =
2018-02-21 03:51 METAR KEWR 210851Z 23008KT 8SM OVC008 16/14 A3030 RMK AO2 SLP258 T01560144 56006
                 =
2018-02-21 02:51 METAR KEWR 210751Z 16003KT 9SM OVC009 14/13 A3030 RMK AO2 SLP258 T01440133 =
2018-02-21 02:13 METAR KEWR 210713Z 17004KT 10SM FEW003 BKN009 BKN250 14/13 A3030 RMK AO2
                 T01390128 =
2018-02-21 02:03 METAR KEWR 210703Z 19003KT 10SM FEW003 SCT009 BKN250 14/13 A3031 RMK AO2
                 T01390128 =
2018-02-21 01:51 METAR KEWR 210651Z 17004KT 10SM FEW010 BKN250 14/13 A3030 RMK AO2 SLP261
                 T01390128 =
2018-02-21 00:51 METAR KEWR 210551Z 16005KT 10SM FEW010 BKN250 15/13 A3031 RMK AO2 SLP264
                 T01500133 10189 20150 58000 =
2018-02-20 23:51 METAR KEWR 210451Z 17003KT 10SM BKN250 16/13 A3033 RMK AO2 SLP268 T01560133
                 402060078 =
2018-02-20 22:51 METAR KEWR 210351Z 19006KT 10SM BKN250 16/13 A3032 RMK AO2 SLP266 T01560128 =
2018-02-20 21:51 METAR KEWR 210251Z 20008KT 10SM BKN250 16/12 A3032 RMK AO2 SLP265 T01560122
                 53004 =
2018-02-20 20:51 METAR KEWR 210151Z 19005KT 10SM BKN250 17/12 A3031 RMK AO2 SLP263 T01670122 =

Support USWX by starting your Amazon purchase here.